createdAt,value
2022-09-01T00:00:02.744Z,80.00
2022-09-01T00:02:31.206Z,80.50
2022-09-01T00:04:58.770Z,80.40
2022-09-01T00:07:30.299Z,81.00
2022-09-01T00:09:58.537Z,81.10
2022-09-01T00:12:26.146Z,81.50
2022-09-01T00:14:53.320Z,81.10
2022-09-01T00:17:20.285Z,81.40
2022-09-01T00:19:47.347Z,81.30
2022-09-01T00:22:14.316Z,82.20
2022-09-01T00:24:41.333Z,82.40
2022-09-01T00:27:08.233Z,82.70
2022-09-01T00:29:36.636Z,82.70
2022-09-01T00:32:04.919Z,82.70
2022-09-01T00:34:31.769Z,82.90
2022-09-01T00:36:58.816Z,82.90
2022-09-01T00:39:25.984Z,83.10
2022-09-01T00:41:53.113Z,82.60
2022-09-01T00:44:29.762Z,82.60
2022-09-01T00:46:59.941Z,82.00
2022-09-01T00:49:35.104Z,82.00
2022-09-01T00:52:30.470Z,81.60
2022-09-01T00:55:02.548Z,81.60
2022-09-01T00:57:29.759Z,81.70
2022-09-01T01:00:05.527Z,81.20
2022-09-01T01:02:32.581Z,80.70
2022-09-01T01:05:00.651Z,80.60
2022-09-01T01:07:29.081Z,81.00
2022-09-01T01:09:56.837Z,80.20
2022-09-01T01:12:23.969Z,79.90
2022-09-01T01:14:51.073Z,80.30
2022-09-01T01:17:22.619Z,79.60
2022-09-01T01:20:13.912Z,80.20
2022-09-01T01:23:03.738Z,79.90
2022-09-01T01:25:38.660Z,79.90
2022-09-01T01:28:09.735Z,80.20
2022-09-01T01:30:39.939Z,80.30
2022-09-01T01:33:07.821Z,80.20
2022-09-01T01:35:35.906Z,80.30
2022-09-01T01:38:06.960Z,80.60
2022-09-01T01:40:35.047Z,81.10
2022-09-01T01:43:02.602Z,81.10
2022-09-01T01:45:30.461Z,81.10
2022-09-01T01:47:57.390Z,80.60
2022-09-01T01:50:33.498Z,80.90
2022-09-01T01:53:02.801Z,80.90
2022-09-01T01:55:31.130Z,80.70
2022-09-01T01:57:59.848Z,80.70
2022-09-01T02:00:32.312Z,80.50
2022-09-01T02:02:59.630Z,80.80
2022-09-01T02:05:32.042Z,80.90
2022-09-01T02:08:04.142Z,80.40
2022-09-01T02:10:34.292Z,80.60
2022-09-01T02:13:07.143Z,80.10
2022-09-01T02:15:42.406Z,79.20
2022-09-01T02:18:11.056Z,79.40
2022-09-01T02:20:37.934Z,79.10
2022-09-01T02:23:10.754Z,79.50
2022-09-01T02:26:14.073Z,80.20
2022-09-01T02:28:36.874Z,79.80
2022-09-01T02:31:06.046Z,79.10
2022-09-01T02:33:33.286Z,80.30
2022-09-01T02:36:03.462Z,79.90
2022-09-01T02:38:31.246Z,79.80
2022-09-01T02:40:59.649Z,78.20
2022-09-01T02:43:28.455Z,79.00
2022-09-01T02:45:59.697Z,79.30
2022-09-01T02:48:38.619Z,79.00
2022-09-01T02:51:08.500Z,77.80
2022-09-01T02:53:36.060Z,75.60
2022-09-01T02:56:09.615Z,76.40
2022-09-01T02:58:45.958Z,76.90
2022-09-01T03:01:18.517Z,78.10
2022-09-01T03:03:45.402Z,77.90
2022-09-01T03:06:12.901Z,77.90
2022-09-01T03:08:39.763Z,78.30
2022-09-01T03:11:12.961Z,78.70
2022-09-01T03:13:41.554Z,78.60
2022-09-01T03:16:09.143Z,78.40
2022-09-01T03:18:36.901Z,78.40
2022-09-01T03:21:05.248Z,78.10
2022-09-01T03:23:33.996Z,78.10
2022-09-01T03:26:01.523Z,78.20
2022-09-01T03:28:28.879Z,78.60
2022-09-01T03:30:58.063Z,78.80
2022-09-01T03:33:26.861Z,79.00
2022-09-01T03:35:55.005Z,79.30
2022-09-01T03:38:24.230Z,79.60
2022-09-01T03:41:01.892Z,79.70
2022-09-01T03:43:35.714Z,79.90
2022-09-01T03:46:03.526Z,80.10
2022-09-01T03:48:32.161Z,79.90
2022-09-01T03:51:02.625Z,80.20
2022-09-01T03:53:35.943Z,80.10
2022-09-01T03:56:04.181Z,79.90
2022-09-01T03:58:31.126Z,79.80
2022-09-01T04:01:02.789Z,79.30
2022-09-01T04:03:32.381Z,79.50
2022-09-01T04:06:00.649Z,78.70
2022-09-01T04:08:33.064Z,78.70
2022-09-01T04:11:24.300Z,78.00
2022-09-01T04:13:51.637Z,77.90
2022-09-01T04:16:48.720Z,76.60
2022-09-01T04:19:21.035Z,77.10
2022-09-01T04:21:53.841Z,76.60
2022-09-01T04:24:23.917Z,76.40
2022-09-01T04:26:52.293Z,75.80
2022-09-01T04:29:27.190Z,74.60
2022-09-01T04:32:05.512Z,70.70
2022-09-01T04:34:38.587Z,71.00
2022-09-01T04:37:14.920Z,70.10
2022-09-01T04:39:53.674Z,70.40
2022-09-01T04:42:24.240Z,68.50
2022-09-01T04:44:53.685Z,68.10
2022-09-01T04:47:36.285Z,66.20
2022-09-01T04:50:05.005Z,65.60
2022-09-01T04:52:32.035Z,63.50
2022-09-01T04:54:58.874Z,61.30
2022-09-01T04:57:27.693Z,60.00
2022-09-01T04:59:56.893Z,57.50
2022-09-01T05:02:27.180Z,55.60
2022-09-01T05:04:55.122Z,54.70
2022-09-01T05:07:23.642Z,51.60
2022-09-01T05:09:58.063Z,49.80
2022-09-01T05:12:27.869Z,49.00
2022-09-01T05:14:55.924Z,50.80
2022-09-01T05:17:26.001Z,52.90
2022-09-01T05:19:52.877Z,49.90
2022-09-01T05:22:22.371Z,49.40
2022-09-01T05:24:51.455Z,49.90
2022-09-01T05:27:22.931Z,47.50
2022-09-01T05:29:50.486Z,47.30
2022-09-01T05:32:17.536Z,45.60
2022-09-01T05:34:45.273Z,45.00
2022-09-01T05:37:16.051Z,43.90
2022-09-01T05:39:43.087Z,43.70
2022-09-01T05:42:10.047Z,45.80
2022-09-01T05:44:44.033Z,45.20
2022-09-01T05:47:20.644Z,45.00
2022-09-01T05:49:49.879Z,45.20
2022-09-01T05:52:17.089Z,48.10
2022-09-01T05:54:46.018Z,50.90
2022-09-01T05:57:33.376Z,54.20
2022-09-01T06:00:00.591Z,58.30
2022-09-01T06:02:27.896Z,62.70
2022-09-01T06:04:56.967Z,64.00
2022-09-01T06:07:25.559Z,66.50
2022-09-01T06:09:54.958Z,67.20
2022-09-01T06:12:23.999Z,67.20
2022-09-01T06:14:53.646Z,67.50
2022-09-01T06:17:24.952Z,68.20
2022-09-01T06:19:56.839Z,68.60
2022-09-01T06:22:26.291Z,68.30
2022-09-01T06:24:58.271Z,67.00
2022-09-01T06:27:29.419Z,67.00
2022-09-01T06:29:58.434Z,70.10
2022-09-01T06:32:27.043Z,71.80
2022-09-01T06:34:54.195Z,72.50
2022-09-01T06:37:22.481Z,73.00
2022-09-01T06:39:50.364Z,73.90
2022-09-01T06:42:17.698Z,74.90
2022-09-01T06:44:46.078Z,76.50
2022-09-01T06:47:13.138Z,76.70
2022-09-01T06:49:40.911Z,77.20
2022-09-01T06:52:08.173Z,78.40
2022-09-01T06:54:36.472Z,78.20
2022-09-01T06:59:52.381Z,77.40
2022-09-01T07:02:20.179Z,79.60
2022-09-01T07:04:53.538Z,79.60
2022-09-01T07:10:23.380Z,80.70
2022-09-01T07:13:11.609Z,80.50
2022-09-01T07:18:31.333Z,81.90
2022-09-01T07:21:06.940Z,81.70
2022-09-01T07:24:08.510Z,80.70
2022-09-01T07:26:35.778Z,80.80
2022-09-01T07:29:06.187Z,81.10
2022-09-01T07:34:46.293Z,82.00
2022-09-01T07:45:47.162Z,82.70
2022-09-01T07:51:35.495Z,82.60
2022-09-01T07:53:54.722Z,82.50
2022-09-01T07:56:23.718Z,82.20
2022-09-01T07:58:51.967Z,82.60
2022-09-01T08:01:23.285Z,82.30
2022-09-01T08:03:54.099Z,81.10
2022-09-01T08:06:24.930Z,80.30
2022-09-01T08:08:57.507Z,79.80
2022-09-01T08:11:58.296Z,78.30
2022-09-01T08:14:18.184Z,77.90
2022-09-01T08:16:53.174Z,77.30
2022-09-01T08:19:20.562Z,77.00
2022-09-01T08:21:47.497Z,76.10
2022-09-01T08:24:14.384Z,75.80
2022-09-01T08:26:41.421Z,75.00
2022-09-01T08:29:08.337Z,74.20
2022-09-01T08:31:36.197Z,73.60
2022-09-01T08:34:05.473Z,74.10
2022-09-01T08:36:32.903Z,74.30
2022-09-01T08:38:59.796Z,73.50
2022-09-01T08:41:35.225Z,73.20
2022-09-01T08:44:29.601Z,71.80
2022-09-01T08:47:08.272Z,73.40
2022-09-01T08:49:46.064Z,73.60
2022-09-01T08:52:41.397Z,75.00
2022-09-01T08:55:40.231Z,77.10
2022-09-01T08:58:09.836Z,78.00
2022-09-01T09:00:45.964Z,77.70
2022-09-01T09:03:26.053Z,78.10
2022-09-01T09:06:07.109Z,78.60
2022-09-01T09:08:56.701Z,78.80
2022-09-01T09:11:59.025Z,79.00
2022-09-01T09:14:44.185Z,80.80
2022-09-01T09:17:12.156Z,80.40
2022-09-01T09:19:44.464Z,80.60
2022-09-01T09:22:17.687Z,80.70
2022-09-01T09:24:52.640Z,81.00
2022-09-01T09:27:23.924Z,81.20
2022-09-01T09:29:56.903Z,82.30
2022-09-01T09:33:11.687Z,81.10
2022-09-01T09:35:48.773Z,81.60
2022-09-01T09:38:29.205Z,81.20
2022-09-01T09:41:25.434Z,81.70
2022-09-01T09:44:13.277Z,81.00
2022-09-01T09:46:43.732Z,80.50
2022-09-01T09:49:36.150Z,81.50
2022-09-01T09:52:18.347Z,81.20
2022-09-01T09:55:07.378Z,79.10
2022-09-01T09:57:41.575Z,80.20
2022-09-01T10:00:17.930Z,80.00
2022-09-01T10:02:51.802Z,81.00
2022-09-01T10:05:39.730Z,80.10
2022-09-01T10:08:27.307Z,80.40
2022-09-01T10:10:57.955Z,79.10
2022-09-01T10:13:29.174Z,79.50
2022-09-01T10:16:03.790Z,79.90
2022-09-01T10:18:41.492Z,79.90
2022-09-01T10:21:10.024Z,78.00
2022-09-01T10:23:38.817Z,77.50
2022-09-01T10:26:25.079Z,78.20
2022-09-01T10:28:59.211Z,78.90
2022-09-01T10:31:32.118Z,79.00
2022-09-01T10:34:02.100Z,80.20
2022-09-01T10:36:31.018Z,79.60
2022-09-01T10:39:04.396Z,80.00
2022-09-01T10:41:44.347Z,79.00
2022-09-01T10:44:21.334Z,79.90
2022-09-01T10:46:52.286Z,79.20
2022-09-01T10:49:46.369Z,79.40
2022-09-01T10:52:43.115Z,79.20
2022-09-01T10:55:24.796Z,78.50
2022-09-01T10:58:09.539Z,78.10
2022-09-01T11:01:11.564Z,76.60
2022-09-01T11:03:53.595Z,76.80
2022-09-01T11:06:42.853Z,75.10
2022-09-01T11:09:45.753Z,74.20
2022-09-01T11:12:30.025Z,75.00
2022-09-01T11:15:06.985Z,75.80
2022-09-01T11:17:37.968Z,76.30
2022-09-01T11:20:25.024Z,75.70
2022-09-01T11:22:57.640Z,74.70
2022-09-01T11:25:48.570Z,73.60
2022-09-01T11:28:41.897Z,74.40
2022-09-01T11:31:09.056Z,72.90
2022-09-01T11:34:02.187Z,73.40
2022-09-01T11:36:48.410Z,73.60
2022-09-01T11:39:19.205Z,71.90
2022-09-01T11:42:20.001Z,72.80
2022-09-01T11:44:57.681Z,70.80
2022-09-01T11:47:30.618Z,69.50
2022-09-01T11:50:03.649Z,67.40
2022-09-01T11:52:34.266Z,66.50
2022-09-01T11:55:01.116Z,66.60
2022-09-01T11:57:31.373Z,65.40
2022-09-01T12:00:01.121Z,66.80
2022-09-01T12:02:42.465Z,66.40
2022-09-01T12:05:29.915Z,67.10
2022-09-01T12:07:58.005Z,67.10
2022-09-01T12:10:32.729Z,67.70
2022-09-01T12:13:03.838Z,67.50
2022-09-01T12:15:30.966Z,68.20
2022-09-01T12:18:22.029Z,68.90
2022-09-01T12:20:50.849Z,68.50
2022-09-01T12:23:25.973Z,66.60
2022-09-01T12:25:59.248Z,63.70
2022-09-01T12:28:32.322Z,64.30
2022-09-01T12:31:07.656Z,59.80
2022-09-01T12:33:35.542Z,58.80
2022-09-01T12:36:32.122Z,58.60
2022-09-01T12:39:36.760Z,57.90
2022-09-01T12:42:08.162Z,59.70
2022-09-01T12:44:38.153Z,59.10
2022-09-01T12:47:08.452Z,58.30
2022-09-01T12:49:50.345Z,57.00
2022-09-01T12:52:27.595Z,58.10
2022-09-01T12:55:03.676Z,57.30
2022-09-01T12:57:39.999Z,58.20
2022-09-01T13:00:12.597Z,59.70
2022-09-01T13:02:41.166Z,58.20
2022-09-01T13:05:30.667Z,57.70
2022-09-01T13:08:00.979Z,57.10
2022-09-01T13:10:33.126Z,56.30
2022-09-01T13:13:01.990Z,55.30
2022-09-01T13:15:28.915Z,54.70
2022-09-01T13:17:55.771Z,55.10
2022-09-01T13:20:22.843Z,55.50
2022-09-01T13:22:50.460Z,54.50
2022-09-01T13:25:20.411Z,54.50
2022-09-01T13:27:48.541Z,54.90
2022-09-01T13:30:21.874Z,56.20
2022-09-01T13:35:36.448Z,54.20
2022-09-01T13:38:03.321Z,54.70
2022-09-01T13:40:30.297Z,55.40
2022-09-01T13:42:57.355Z,54.40
2022-09-01T13:45:25.843Z,55.90
2022-09-01T13:53:27.800Z,57.00
2022-09-01T13:55:54.828Z,57.40
2022-09-01T13:58:21.774Z,57.50
2022-09-01T14:00:50.951Z,56.90
2022-09-01T14:03:23.213Z,55.40
2022-09-01T14:05:50.528Z,55.80
2022-09-01T14:08:21.050Z,55.60
2022-09-01T14:10:50.962Z,54.80
2022-09-01T14:13:20.256Z,56.20
2022-09-01T14:15:48.397Z,55.20
2022-09-01T14:18:16.464Z,55.30
2022-09-01T14:20:46.207Z,55.50
2022-09-01T14:23:14.791Z,55.70
2022-09-01T14:25:48.342Z,55.00
2022-09-01T14:28:16.671Z,55.50
2022-09-01T14:30:48.954Z,56.30
2022-09-01T14:33:16.716Z,56.10
2022-09-01T14:35:46.698Z,56.00
2022-09-01T14:38:14.921Z,56.00
2022-09-01T14:40:43.250Z,56.00
2022-09-01T14:43:14.401Z,56.60
2022-09-01T14:45:46.001Z,57.40
2022-09-01T14:48:15.115Z,57.50
2022-09-01T14:50:44.434Z,58.50
2022-09-01T14:53:12.577Z,60.70
2022-09-01T14:55:43.596Z,62.90
2022-09-01T14:58:10.942Z,62.60
2022-09-01T15:00:41.048Z,63.90
2022-09-01T15:03:09.775Z,65.00
2022-09-01T15:05:39.449Z,66.70
2022-09-01T15:08:08.539Z,67.10
2022-09-01T15:10:36.619Z,67.30
2022-09-01T15:13:04.479Z,67.50
2022-09-01T15:15:32.607Z,67.20
2022-09-01T15:18:00.957Z,66.60
2022-09-01T15:20:47.078Z,65.70
2022-09-01T15:23:19.013Z,65.50
2022-09-01T15:25:46.393Z,65.10
2022-09-01T15:28:13.730Z,65.40
2022-09-01T15:30:41.386Z,64.60
2022-09-01T15:33:14.673Z,65.40
2022-09-01T15:35:43.063Z,64.80
2022-09-01T15:38:10.456Z,65.10
2022-09-01T15:40:42.965Z,64.90
2022-09-01T15:43:11.619Z,65.10
2022-09-01T15:45:39.301Z,64.60
2022-09-01T15:48:06.289Z,64.50
2022-09-01T15:50:33.427Z,64.20
2022-09-01T15:53:05.973Z,64.30
2022-09-01T15:55:42.935Z,64.70
2022-09-01T15:58:12.933Z,64.60
2022-09-01T16:00:41.177Z,63.90
2022-09-01T16:03:08.928Z,63.60
2022-09-01T16:05:37.759Z,63.30
2022-09-01T16:08:08.367Z,63.60
2022-09-01T16:10:37.054Z,63.60
2022-09-01T16:13:04.783Z,63.50
2022-09-01T16:15:32.530Z,63.60
2022-09-01T16:18:05.479Z,65.10
